FIN292 UKBB-EFHK
Flight info
| Callsign | FIN292 |
|---|---|
| Flight time | 2h 8m |
| Altitude | 34000 |
| Route | KAFEL T731 OKROT DCT TOLPA/N0456F340 DCT LUGUG DCT ETUBO DCT BOKSU/N0454F330 DCT GUNTA M857 SOKVA DCT KEMET Q11 INTOR |
| Aircraft | A321/M-SDE3FGHIRWY/LB1 |
Departure
| Time | 2026-04-21 12:47 |
|---|---|
| Airport | Boryspil International Airport (UKBB) |
Arrival
| Time | 2026-04-21 14:56 |
|---|---|
| Airport | Helsinki Vantaa Airport (EFHK) |
| Time | Latitude | Longitude | Altitude | Speed | Heading |
|---|---|---|---|---|---|
| 2026-04-21 12:08 | 50.35261 | 30.89903 | 415 ft | 0 kts | 273° |
| 2026-04-21 12:32 | 50.35261 | 30.89935 | 409 ft | 4 kts | 267° |
| 2026-04-21 12:33 | 50.35264 | 30.89976 | 406 ft | 4 kts | 253° |
| 2026-04-21 12:33 | 50.35275 | 30.90012 | 407 ft | 4 kts | 220° |
| 2026-04-21 12:33 | 50.35291 | 30.90024 | 407 ft | 1 kts | 182° |
| 2026-04-21 12:33 | 50.35294 | 30.90024 | 408 ft | 0 kts | 182° |
| 2026-04-21 12:35 | 50.35291 | 30.90024 | 407 ft | 2 kts | 182° |
| 2026-04-21 12:36 | 50.35250 | 30.90021 | 413 ft | 10 kts | 182° |
| 2026-04-21 12:36 | 50.35164 | 30.90015 | 415 ft | 13 kts | 182° |
| 2026-04-21 12:36 | 50.35071 | 30.90008 | 412 ft | 14 kts | 182° |
| 2026-04-21 12:36 | 50.34974 | 30.90001 | 415 ft | 14 kts | 182° |
| 2026-04-21 12:37 | 50.34908 | 30.90030 | 415 ft | 10 kts | 137° |
| 2026-04-21 12:37 | 50.34891 | 30.90132 | 415 ft | 10 kts | 93° |
| 2026-04-21 12:37 | 50.34864 | 30.90226 | 415 ft | 10 kts | 150° |
| 2026-04-21 12:37 | 50.34796 | 30.90231 | 411 ft | 10 kts | 182° |
| 2026-04-21 12:38 | 50.34711 | 30.90225 | 411 ft | 14 kts | 182° |
| 2026-04-21 12:38 | 50.34601 | 30.90217 | 409 ft | 18 kts | 183° |
| 2026-04-21 12:38 | 50.34467 | 30.90205 | 410 ft | 21 kts | 183° |
| 2026-04-21 12:38 | 50.34318 | 30.90196 | 414 ft | 22 kts | 182° |
| 2026-04-21 12:39 | 50.34168 | 30.90184 | 409 ft | 22 kts | 183° |
| 2026-04-21 12:39 | 50.34017 | 30.90174 | 412 ft | 22 kts | 182° |
| 2026-04-21 12:39 | 50.33867 | 30.90163 | 414 ft | 22 kts | 183° |
| 2026-04-21 12:39 | 50.33715 | 30.90151 | 415 ft | 22 kts | 182° |
| 2026-04-21 12:40 | 50.33561 | 30.90140 | 414 ft | 22 kts | 182° |
| 2026-04-21 12:40 | 50.33407 | 30.90129 | 416 ft | 22 kts | 182° |
| 2026-04-21 12:40 | 50.33252 | 30.90117 | 414 ft | 22 kts | 182° |
| 2026-04-21 12:40 | 50.33095 | 30.90106 | 412 ft | 23 kts | 182° |
| 2026-04-21 12:41 | 50.32937 | 30.90094 | 415 ft | 23 kts | 182° |
| 2026-04-21 12:41 | 50.32779 | 30.90083 | 413 ft | 23 kts | 182° |
| 2026-04-21 12:41 | 50.32621 | 30.90071 | 415 ft | 23 kts | 182° |
| 2026-04-21 12:41 | 50.32535 | 30.90066 | 411 ft | 6 kts | 179° |
| 2026-04-21 12:42 | 50.32492 | 30.90085 | 415 ft | 6 kts | 153° |
| 2026-04-21 12:42 | 50.32486 | 30.90091 | 411 ft | 0 kts | 146° |
| 2026-04-21 12:45 | 50.32477 | 30.90100 | 412 ft | 5 kts | 143° |
| 2026-04-21 12:46 | 50.32445 | 30.90185 | 407 ft | 13 kts | 105° |
| 2026-04-21 12:46 | 50.32470 | 30.90319 | 416 ft | 12 kts | 50° |
| 2026-04-21 12:46 | 50.32526 | 30.90387 | 425 ft | 10 kts | 8° |
| 2026-04-21 12:46 | 50.32658 | 30.90398 | 420 ft | 43 kts | 2° |
| 2026-04-21 12:47 | 50.33182 | 30.90436 | 415 ft | 106 kts | 2° |
| 2026-04-21 12:47 | 50.34104 | 30.90503 | 421 ft | 157 kts | 2° |
| 2026-04-21 12:47 | 50.35240 | 30.90610 | 948 ft | 160 kts | 3° |
| 2026-04-21 12:47 | 50.36342 | 30.90770 | 1633 ft | 162 kts | 5° |
| 2026-04-21 12:48 | 50.37507 | 30.90950 | 1966 ft | 178 kts | 5° |
| 2026-04-21 12:48 | 50.38811 | 30.91148 | 2140 ft | 199 kts | 5° |
| 2026-04-21 12:48 | 50.40275 | 30.91363 | 2271 ft | 224 kts | 5° |
| 2026-04-21 12:48 | 50.41895 | 30.91574 | 2690 ft | 239 kts | 2° |
| 2026-04-21 12:49 | 50.43574 | 30.91661 | 3397 ft | 243 kts | 0° |
| 2026-04-21 12:49 | 50.45281 | 30.91667 | 4141 ft | 247 kts | 356° |
| 2026-04-21 12:49 | 50.46918 | 30.90977 | 4837 ft | 252 kts | 331° |
| 2026-04-21 12:49 | 50.48225 | 30.89140 | 5530 ft | 258 kts | 304° |
| 2026-04-21 12:50 | 50.48849 | 30.86487 | 6260 ft | 264 kts | 280° |
| 2026-04-21 12:50 | 50.49084 | 30.83609 | 6971 ft | 266 kts | 279° |
| 2026-04-21 12:50 | 50.49308 | 30.80722 | 7702 ft | 268 kts | 279° |
| 2026-04-21 12:50 | 50.49534 | 30.77817 | 8478 ft | 268 kts | 278° |
| 2026-04-21 12:51 | 50.49764 | 30.74898 | 9193 ft | 271 kts | 279° |
| 2026-04-21 12:51 | 50.49998 | 30.71962 | 9975 ft | 271 kts | 278° |
| 2026-04-21 12:51 | 50.50239 | 30.68971 | 10364 ft | 285 kts | 279° |
| 2026-04-21 12:51 | 50.50497 | 30.65807 | 10504 ft | 307 kts | 278° |
| 2026-04-21 12:52 | 50.50774 | 30.62373 | 10631 ft | 327 kts | 278° |
| 2026-04-21 12:52 | 50.51069 | 30.58726 | 10758 ft | 346 kts | 278° |
| 2026-04-21 12:52 | 50.51376 | 30.54880 | 10902 ft | 363 kts | 278° |
| 2026-04-21 12:52 | 50.51687 | 30.50901 | 11371 ft | 370 kts | 278° |
| 2026-04-21 12:53 | 50.51999 | 30.46868 | 11951 ft | 374 kts | 278° |
| 2026-04-21 12:53 | 50.52312 | 30.42797 | 12573 ft | 377 kts | 278° |
| 2026-04-21 12:53 | 50.52626 | 30.38745 | 13146 ft | 381 kts | 278° |
| 2026-04-21 12:53 | 50.52952 | 30.34589 | 13722 ft | 385 kts | 278° |
| 2026-04-21 12:54 | 50.53279 | 30.30398 | 14219 ft | 389 kts | 278° |
| 2026-04-21 12:54 | 50.53608 | 30.26153 | 14735 ft | 393 kts | 278° |
| 2026-04-21 12:54 | 50.53936 | 30.21860 | 15261 ft | 397 kts | 278° |
| 2026-04-21 12:54 | 50.54264 | 30.17545 | 15784 ft | 400 kts | 279° |
| 2026-04-21 12:55 | 50.54595 | 30.13186 | 16271 ft | 404 kts | 278° |
| 2026-04-21 12:55 | 50.54927 | 30.08781 | 16745 ft | 407 kts | 278° |
| 2026-04-21 12:55 | 50.55260 | 30.04335 | 17210 ft | 411 kts | 278° |
| 2026-04-21 12:55 | 50.55587 | 29.99913 | 17676 ft | 414 kts | 278° |
| 2026-04-21 12:56 | 50.55919 | 29.95397 | 18130 ft | 417 kts | 278° |
| 2026-04-21 12:56 | 50.56254 | 29.90848 | 18552 ft | 420 kts | 278° |
| 2026-04-21 12:56 | 50.56589 | 29.86269 | 18940 ft | 423 kts | 278° |
| 2026-04-21 12:56 | 50.56924 | 29.81657 | 19348 ft | 426 kts | 278° |
| 2026-04-21 12:57 | 50.57260 | 29.77019 | 19746 ft | 428 kts | 278° |
| 2026-04-21 12:57 | 50.57596 | 29.72367 | 20148 ft | 430 kts | 278° |
| 2026-04-21 12:57 | 50.57935 | 29.67676 | 20540 ft | 433 kts | 278° |
| 2026-04-21 12:57 | 50.58276 | 29.62947 | 20911 ft | 435 kts | 278° |
| 2026-04-21 12:58 | 50.58611 | 29.58281 | 21324 ft | 437 kts | 278° |
| 2026-04-21 12:58 | 50.58948 | 29.53511 | 21717 ft | 440 kts | 278° |
| 2026-04-21 12:58 | 50.59281 | 29.48713 | 22090 ft | 442 kts | 277° |
| 2026-04-21 12:58 | 50.59613 | 29.43888 | 22453 ft | 445 kts | 278° |
| 2026-04-21 12:59 | 50.59948 | 29.39035 | 22803 ft | 447 kts | 277° |
| 2026-04-21 12:59 | 50.60281 | 29.34163 | 23142 ft | 450 kts | 277° |
| 2026-04-21 12:59 | 50.60614 | 29.29247 | 23479 ft | 452 kts | 278° |
| 2026-04-21 12:59 | 50.60940 | 29.24304 | 23773 ft | 455 kts | 277° |
| 2026-04-21 13:00 | 50.61244 | 29.19394 | 24059 ft | 457 kts | 277° |
| 2026-04-21 13:00 | 50.61539 | 29.14405 | 24347 ft | 460 kts | 277° |
| 2026-04-21 13:00 | 50.61824 | 29.09381 | 24684 ft | 461 kts | 277° |
| 2026-04-21 13:00 | 50.62104 | 29.04349 | 25033 ft | 461 kts | 276° |
| 2026-04-21 13:01 | 50.62385 | 28.99326 | 25449 ft | 461 kts | 277° |
| 2026-04-21 13:01 | 50.62672 | 28.94300 | 25837 ft | 461 kts | 276° |
| 2026-04-21 13:01 | 50.62965 | 28.89275 | 26220 ft | 461 kts | 276° |
| 2026-04-21 13:01 | 50.63251 | 28.84313 | 26602 ft | 461 kts | 277° |
| 2026-04-21 13:02 | 50.63535 | 28.79295 | 26976 ft | 461 kts | 277° |
| 2026-04-21 13:02 | 50.63817 | 28.74258 | 27342 ft | 462 kts | 276° |
| 2026-04-21 13:02 | 50.64369 | 28.64190 | 28157 ft | 461 kts | 276° |
| 2026-04-21 13:03 | 50.64638 | 28.59157 | 28528 ft | 461 kts | 276° |
| 2026-04-21 13:03 | 50.64904 | 28.54123 | 28911 ft | 461 kts | 276° |
| 2026-04-21 13:03 | 50.65171 | 28.49091 | 29309 ft | 460 kts | 276° |
| 2026-04-21 13:03 | 50.65438 | 28.44065 | 29706 ft | 460 kts | 276° |
| 2026-04-21 13:04 | 50.65707 | 28.39046 | 30103 ft | 460 kts | 276° |
| 2026-04-21 13:04 | 50.65970 | 28.34094 | 30403 ft | 460 kts | 276° |
| 2026-04-21 13:04 | 50.66231 | 28.29074 | 30702 ft | 459 kts | 276° |
| 2026-04-21 13:04 | 50.66486 | 28.24059 | 31015 ft | 459 kts | 276° |
| 2026-04-21 13:05 | 50.66738 | 28.19064 | 31331 ft | 458 kts | 276° |
| 2026-04-21 13:05 | 50.66989 | 28.14060 | 31647 ft | 457 kts | 276° |
| 2026-04-21 13:05 | 50.67240 | 28.09070 | 31943 ft | 457 kts | 276° |
| 2026-04-21 13:05 | 50.67490 | 28.04085 | 32244 ft | 456 kts | 277° |
| 2026-04-21 13:06 | 50.67736 | 27.99109 | 32539 ft | 455 kts | 276° |
| 2026-04-21 13:06 | 50.67977 | 27.94140 | 32832 ft | 454 kts | 276° |
| 2026-04-21 13:06 | 50.68134 | 27.90861 | 33015 ft | 454 kts | 276° |
| 2026-04-21 13:06 | 50.68448 | 27.84297 | 33382 ft | 453 kts | 276° |
| 2026-04-21 13:07 | 50.68682 | 27.79348 | 33644 ft | 452 kts | 276° |
| 2026-04-21 13:07 | 50.68914 | 27.74403 | 33890 ft | 452 kts | 276° |
| 2026-04-21 13:07 | 50.69148 | 27.69455 | 34031 ft | 453 kts | 276° |
| 2026-04-21 13:07 | 50.69381 | 27.64479 | 34041 ft | 457 kts | 276° |
| 2026-04-21 13:08 | 50.69841 | 27.54422 | 34054 ft | 462 kts | 275° |
| 2026-04-21 13:08 | 50.70284 | 27.44384 | 34052 ft | 460 kts | 276° |
| 2026-04-21 13:09 | 50.70869 | 27.34338 | 34056 ft | 459 kts | 283° |
| 2026-04-21 13:09 | 50.72532 | 27.24615 | 34060 ft | 459 kts | 287° |
| 2026-04-21 13:10 | 50.73971 | 27.16556 | 34059 ft | 460 kts | 287° |
| 2026-04-21 13:10 | 50.75970 | 27.05238 | 34065 ft | 461 kts | 287° |
| 2026-04-21 13:11 | 50.77676 | 26.95487 | 34073 ft | 461 kts | 287° |
| 2026-04-21 13:11 | 50.79383 | 26.85712 | 34078 ft | 461 kts | 287° |
| 2026-04-21 13:12 | 50.80795 | 26.77573 | 34081 ft | 462 kts | 287° |
| 2026-04-21 13:12 | 50.82764 | 26.66186 | 34077 ft | 462 kts | 287° |
| 2026-04-21 13:13 | 50.84175 | 26.57959 | 34086 ft | 462 kts | 287° |
| 2026-04-21 13:13 | 50.85841 | 26.48209 | 34088 ft | 463 kts | 287° |
| 2026-04-21 13:14 | 50.87512 | 26.38371 | 34090 ft | 463 kts | 287° |
| 2026-04-21 13:14 | 50.89177 | 26.28525 | 34081 ft | 463 kts | 287° |
| 2026-04-21 13:15 | 50.90829 | 26.18663 | 34081 ft | 463 kts | 287° |
| 2026-04-21 13:15 | 50.92469 | 26.08853 | 34093 ft | 464 kts | 287° |
| 2026-04-21 13:16 | 50.94110 | 25.98977 | 34093 ft | 464 kts | 287° |
| 2026-04-21 13:16 | 50.95747 | 25.89078 | 34096 ft | 464 kts | 286° |
| 2026-04-21 13:17 | 50.97374 | 25.79169 | 34087 ft | 464 kts | 287° |
| 2026-04-21 13:17 | 50.98982 | 25.69309 | 34092 ft | 465 kts | 287° |
| 2026-04-21 13:18 | 51.00595 | 25.59371 | 34096 ft | 465 kts | 286° |
| 2026-04-21 13:18 | 51.02198 | 25.49421 | 34098 ft | 465 kts | 286° |
| 2026-04-21 13:19 | 51.03787 | 25.39458 | 34098 ft | 465 kts | 286° |
| 2026-04-21 13:19 | 51.05375 | 25.29495 | 34093 ft | 466 kts | 286° |
| 2026-04-21 13:20 | 51.06952 | 25.19570 | 34103 ft | 466 kts | 286° |
| 2026-04-21 13:20 | 51.08529 | 25.09576 | 34102 ft | 466 kts | 286° |
| 2026-04-21 13:21 | 51.10098 | 24.99561 | 34100 ft | 467 kts | 286° |
| 2026-04-21 13:21 | 51.11659 | 24.89534 | 34096 ft | 467 kts | 286° |
| 2026-04-21 13:22 | 51.13201 | 24.79555 | 34105 ft | 468 kts | 285° |
| 2026-04-21 13:22 | 51.14741 | 24.69490 | 34100 ft | 468 kts | 285° |
| 2026-04-21 13:23 | 51.16277 | 24.59414 | 34100 ft | 468 kts | 285° |
| 2026-04-21 13:23 | 51.17815 | 24.49332 | 34104 ft | 468 kts | 285° |
| 2026-04-21 13:24 | 51.19338 | 24.39247 | 34099 ft | 469 kts | 285° |
| 2026-04-21 13:24 | 51.20836 | 24.29195 | 34102 ft | 469 kts | 285° |
| 2026-04-21 13:25 | 51.22346 | 24.19065 | 34104 ft | 469 kts | 285° |
| 2026-04-21 13:25 | 51.23846 | 24.08922 | 34105 ft | 470 kts | 285° |
| 2026-04-21 13:26 | 51.25322 | 23.98835 | 34107 ft | 470 kts | 285° |
| 2026-04-21 13:26 | 51.26805 | 23.88672 | 34109 ft | 470 kts | 285° |
| 2026-04-21 13:27 | 51.28285 | 23.78517 | 34112 ft | 470 kts | 285° |
| 2026-04-21 13:27 | 51.29748 | 23.68345 | 34115 ft | 470 kts | 285° |
| 2026-04-21 13:28 | 51.31167 | 23.58228 | 34114 ft | 470 kts | 284° |
| 2026-04-21 13:28 | 51.32518 | 23.48004 | 34102 ft | 470 kts | 284° |
| 2026-04-21 13:29 | 51.33852 | 23.37760 | 34104 ft | 471 kts | 283° |
| 2026-04-21 13:29 | 51.35185 | 23.27515 | 34110 ft | 471 kts | 283° |
| 2026-04-21 13:30 | 51.36531 | 23.17255 | 34115 ft | 471 kts | 286° |
| 2026-04-21 13:30 | 51.37612 | 23.12423 | 34114 ft | 466 kts | 300° |
| 2026-04-21 13:30 | 51.39357 | 23.08099 | 34096 ft | 461 kts | 313° |
| 2026-04-21 13:31 | 51.41654 | 23.04566 | 34093 ft | 456 kts | 326° |
| 2026-04-21 13:31 | 51.44363 | 23.01975 | 34099 ft | 452 kts | 339° |
| 2026-04-21 13:31 | 51.47336 | 23.00413 | 34095 ft | 449 kts | 351° |
| 2026-04-21 13:31 | 51.50426 | 22.99909 | 34094 ft | 446 kts | 0° |
| 2026-04-21 13:32 | 51.56642 | 22.99680 | 34092 ft | 447 kts | 0° |
| 2026-04-21 13:32 | 51.62835 | 22.99448 | 34098 ft | 448 kts | 0° |
| 2026-04-21 13:33 | 51.69080 | 22.99218 | 34108 ft | 449 kts | 0° |
| 2026-04-21 13:33 | 51.75323 | 22.98982 | 34116 ft | 449 kts | 0° |
| 2026-04-21 13:34 | 51.81569 | 22.98743 | 34117 ft | 449 kts | 0° |
| 2026-04-21 13:34 | 51.87813 | 22.98520 | 34104 ft | 448 kts | 1° |
| 2026-04-21 13:35 | 51.94010 | 22.98292 | 34115 ft | 448 kts | 1° |
| 2026-04-21 13:35 | 52.00244 | 22.98044 | 34122 ft | 448 kts | 1° |
| 2026-04-21 13:36 | 52.06466 | 22.97806 | 34122 ft | 447 kts | 1° |
| 2026-04-21 13:36 | 52.12669 | 22.97571 | 34122 ft | 446 kts | 1° |
| 2026-04-21 13:37 | 52.18871 | 22.97335 | 34124 ft | 446 kts | 1° |
| 2026-04-21 13:37 | 52.25028 | 22.97091 | 34126 ft | 445 kts | 1° |
| 2026-04-21 13:38 | 52.31212 | 22.96854 | 34127 ft | 444 kts | 1° |
| 2026-04-21 13:38 | 52.37383 | 22.96625 | 34131 ft | 443 kts | 1° |
| 2026-04-21 13:39 | 52.43537 | 22.96384 | 34125 ft | 443 kts | 1° |
| 2026-04-21 13:39 | 52.49688 | 22.96224 | 34124 ft | 441 kts | 3° |
| 2026-04-21 13:40 | 52.55769 | 22.96519 | 34130 ft | 439 kts | 5° |
| 2026-04-21 13:40 | 52.61867 | 22.96976 | 34139 ft | 438 kts | 5° |
| 2026-04-21 13:41 | 52.67960 | 22.97347 | 34138 ft | 438 kts | 4° |
| 2026-04-21 13:41 | 52.74050 | 22.97638 | 34134 ft | 438 kts | 4° |
| 2026-04-21 13:42 | 52.80087 | 22.97929 | 34135 ft | 437 kts | 4° |
| 2026-04-21 13:42 | 52.86167 | 22.98234 | 34138 ft | 437 kts | 4° |
| 2026-04-21 13:43 | 52.92240 | 22.98547 | 34143 ft | 437 kts | 4° |
| 2026-04-21 13:43 | 52.98315 | 22.98862 | 34143 ft | 437 kts | 4° |
| 2026-04-21 13:44 | 53.04346 | 22.99177 | 34136 ft | 436 kts | 4° |
| 2026-04-21 13:44 | 53.10418 | 22.99490 | 34125 ft | 436 kts | 4° |
| 2026-04-21 13:45 | 53.16487 | 22.99807 | 34138 ft | 436 kts | 4° |
| 2026-04-21 13:45 | 53.22554 | 23.00125 | 34150 ft | 436 kts | 4° |
| 2026-04-21 13:46 | 53.28579 | 23.00438 | 34152 ft | 436 kts | 4° |
| 2026-04-21 13:46 | 53.34645 | 23.00754 | 34153 ft | 436 kts | 3° |
| 2026-04-21 13:47 | 53.40711 | 23.01068 | 34156 ft | 436 kts | 3° |
| 2026-04-21 13:47 | 53.46770 | 23.01387 | 34161 ft | 436 kts | 4° |
| 2026-04-21 13:48 | 53.52796 | 23.01711 | 34161 ft | 436 kts | 4° |
| 2026-04-21 13:48 | 53.58863 | 23.02036 | 34163 ft | 436 kts | 3° |
| 2026-04-21 13:49 | 53.64935 | 23.02352 | 34165 ft | 437 kts | 3° |
| 2026-04-21 13:49 | 53.71008 | 23.02681 | 34169 ft | 437 kts | 3° |
| 2026-04-21 13:50 | 53.77044 | 23.02993 | 34153 ft | 437 kts | 3° |
| 2026-04-21 13:50 | 53.83118 | 23.03315 | 34172 ft | 437 kts | 3° |
| 2026-04-21 13:51 | 53.89185 | 23.03641 | 34174 ft | 436 kts | 3° |
| 2026-04-21 13:51 | 53.95255 | 23.03972 | 34179 ft | 436 kts | 3° |
| 2026-04-21 13:52 | 54.01284 | 23.04312 | 34174 ft | 436 kts | 3° |
| 2026-04-21 13:52 | 54.07354 | 23.04638 | 34177 ft | 436 kts | 3° |
| 2026-04-21 13:53 | 54.13414 | 23.04959 | 34436 ft | 434 kts | 3° |
| 2026-04-21 13:53 | 54.16425 | 23.05124 | 34643 ft | 434 kts | 4° |
| 2026-04-21 13:53 | 54.19448 | 23.05294 | 34822 ft | 434 kts | 4° |
| 2026-04-21 13:54 | 54.22460 | 23.05460 | 34988 ft | 434 kts | 4° |
| 2026-04-21 13:54 | 54.25447 | 23.05625 | 35130 ft | 435 kts | 4° |
| 2026-04-21 13:54 | 54.31489 | 23.06170 | 35164 ft | 434 kts | 10° |
| 2026-04-21 13:55 | 54.37422 | 23.08058 | 35168 ft | 433 kts | 12° |
| 2026-04-21 13:55 | 54.43342 | 23.09960 | 35157 ft | 432 kts | 12° |
| 2026-04-21 13:56 | 54.49252 | 23.11868 | 35166 ft | 433 kts | 12° |
| 2026-04-21 13:56 | 54.55131 | 23.13770 | 35162 ft | 433 kts | 12° |
| 2026-04-21 13:57 | 54.61048 | 23.15688 | 35180 ft | 433 kts | 12° |
| 2026-04-21 13:57 | 54.66964 | 23.17611 | 35188 ft | 432 kts | 12° |
| 2026-04-21 13:58 | 54.72876 | 23.19545 | 35189 ft | 432 kts | 12° |
| 2026-04-21 13:58 | 54.78786 | 23.21480 | 35190 ft | 432 kts | 12° |
| 2026-04-21 13:59 | 54.84650 | 23.23400 | 35191 ft | 432 kts | 12° |
| 2026-04-21 13:59 | 54.90557 | 23.25341 | 35192 ft | 432 kts | 13° |
| 2026-04-21 14:00 | 54.96459 | 23.27288 | 35197 ft | 431 kts | 13° |
| 2026-04-21 14:00 | 55.02354 | 23.29247 | 35195 ft | 431 kts | 13° |
| 2026-04-21 14:01 | 55.08208 | 23.31184 | 35197 ft | 431 kts | 13° |
| 2026-04-21 14:01 | 55.14101 | 23.33130 | 35192 ft | 431 kts | 13° |
| 2026-04-21 14:02 | 55.19981 | 23.35101 | 35195 ft | 430 kts | 13° |
| 2026-04-21 14:03 | 55.28802 | 23.38083 | 35192 ft | 430 kts | 13° |
| 2026-04-21 14:03 | 55.34644 | 23.40036 | 35198 ft | 430 kts | 13° |
| 2026-04-21 14:04 | 55.40521 | 23.42021 | 35195 ft | 430 kts | 13° |
| 2026-04-21 14:04 | 55.46393 | 23.44019 | 35197 ft | 430 kts | 13° |
| 2026-04-21 14:05 | 55.52255 | 23.46017 | 35195 ft | 429 kts | 13° |
| 2026-04-21 14:05 | 55.58088 | 23.47996 | 35189 ft | 429 kts | 13° |
| 2026-04-21 14:06 | 55.63936 | 23.49991 | 35189 ft | 428 kts | 13° |
| 2026-04-21 14:06 | 55.69780 | 23.51992 | 35187 ft | 427 kts | 13° |
| 2026-04-21 14:07 | 55.75611 | 23.53996 | 35210 ft | 426 kts | 13° |
| 2026-04-21 14:07 | 55.81433 | 23.56007 | 35210 ft | 426 kts | 13° |
| 2026-04-21 14:08 | 55.87204 | 23.58005 | 35197 ft | 426 kts | 13° |
| 2026-04-21 14:08 | 55.93016 | 23.60024 | 35207 ft | 425 kts | 14° |
| 2026-04-21 14:09 | 55.98821 | 23.62050 | 35207 ft | 425 kts | 14° |
| 2026-04-21 14:09 | 56.04619 | 23.64080 | 35208 ft | 424 kts | 14° |
| 2026-04-21 14:10 | 56.10376 | 23.66091 | 35207 ft | 424 kts | 14° |
| 2026-04-21 14:10 | 56.16167 | 23.68126 | 35214 ft | 424 kts | 14° |
| 2026-04-21 14:11 | 56.21949 | 23.70172 | 35216 ft | 424 kts | 14° |
| 2026-04-21 14:11 | 56.27738 | 23.72210 | 35216 ft | 424 kts | 14° |
| 2026-04-21 14:12 | 56.33483 | 23.74245 | 35217 ft | 423 kts | 14° |
| 2026-04-21 14:12 | 56.39254 | 23.76323 | 35216 ft | 423 kts | 14° |
| 2026-04-21 14:13 | 56.45008 | 23.78588 | 35213 ft | 423 kts | 15° |
| 2026-04-21 14:13 | 56.50746 | 23.80934 | 35213 ft | 423 kts | 15° |
| 2026-04-21 14:14 | 56.56486 | 23.83264 | 35217 ft | 423 kts | 15° |
| 2026-04-21 14:14 | 56.62193 | 23.85506 | 35201 ft | 423 kts | 14° |
| 2026-04-21 14:15 | 56.67960 | 23.87615 | 35212 ft | 423 kts | 14° |
| 2026-04-21 14:15 | 56.73729 | 23.89689 | 35212 ft | 422 kts | 14° |
| 2026-04-21 14:16 | 56.79490 | 23.91800 | 35217 ft | 422 kts | 14° |
| 2026-04-21 14:16 | 56.85206 | 23.93932 | 35217 ft | 422 kts | 14° |
| 2026-04-21 14:17 | 56.90951 | 23.96088 | 35220 ft | 422 kts | 14° |
| 2026-04-21 14:17 | 56.96715 | 23.98158 | 35224 ft | 422 kts | 13° |
| 2026-04-21 14:18 | 57.02503 | 24.00037 | 35222 ft | 422 kts | 13° |
| 2026-04-21 14:18 | 57.08293 | 24.01906 | 35223 ft | 422 kts | 13° |
| 2026-04-21 14:19 | 57.14037 | 24.03831 | 35222 ft | 422 kts | 13° |
| 2026-04-21 14:19 | 57.19816 | 24.05795 | 35220 ft | 422 kts | 13° |
| 2026-04-21 14:20 | 57.25591 | 24.07747 | 35224 ft | 422 kts | 13° |
| 2026-04-21 14:20 | 57.31373 | 24.09703 | 35213 ft | 422 kts | 13° |
| 2026-04-21 14:21 | 57.37115 | 24.11643 | 35217 ft | 422 kts | 13° |
| 2026-04-21 14:21 | 57.42895 | 24.13603 | 35218 ft | 422 kts | 13° |
| 2026-04-21 14:22 | 57.48671 | 24.15592 | 35217 ft | 422 kts | 13° |
| 2026-04-21 14:22 | 57.54447 | 24.17578 | 35215 ft | 422 kts | 13° |
| 2026-04-21 14:23 | 57.60186 | 24.19556 | 35207 ft | 422 kts | 13° |
| 2026-04-21 14:23 | 57.65967 | 24.21556 | 35206 ft | 423 kts | 13° |
| 2026-04-21 14:24 | 57.71747 | 24.23561 | 35208 ft | 423 kts | 13° |
| 2026-04-21 14:24 | 57.77534 | 24.25577 | 35201 ft | 423 kts | 13° |
| 2026-04-21 14:25 | 57.83285 | 24.27589 | 35199 ft | 423 kts | 13° |
| 2026-04-21 14:25 | 57.89076 | 24.29626 | 35201 ft | 423 kts | 13° |
| 2026-04-21 14:26 | 57.94867 | 24.31640 | 35194 ft | 424 kts | 12° |
| 2026-04-21 14:26 | 58.00673 | 24.33606 | 35196 ft | 424 kts | 12° |
| 2026-04-21 14:27 | 58.06442 | 24.35579 | 35189 ft | 424 kts | 13° |
| 2026-04-21 14:27 | 58.12249 | 24.37583 | 35182 ft | 424 kts | 12° |
| 2026-04-21 14:28 | 58.18057 | 24.39597 | 35176 ft | 424 kts | 12° |
| 2026-04-21 14:28 | 58.23862 | 24.41610 | 35186 ft | 424 kts | 12° |
| 2026-04-21 14:29 | 58.29634 | 24.43617 | 35178 ft | 424 kts | 12° |
| 2026-04-21 14:29 | 58.35446 | 24.45646 | 35179 ft | 424 kts | 12° |
| 2026-04-21 14:30 | 58.41242 | 24.47681 | 35162 ft | 423 kts | 12° |
| 2026-04-21 14:30 | 58.47023 | 24.49725 | 35166 ft | 422 kts | 12° |
| 2026-04-21 14:31 | 58.52794 | 24.51759 | 35169 ft | 421 kts | 12° |
| 2026-04-21 14:31 | 58.58518 | 24.53787 | 35167 ft | 421 kts | 12° |
| 2026-04-21 14:32 | 58.64278 | 24.55836 | 35147 ft | 421 kts | 12° |
| 2026-04-21 14:32 | 58.70033 | 24.57894 | 35161 ft | 420 kts | 12° |
| 2026-04-21 14:33 | 58.75786 | 24.59962 | 35168 ft | 420 kts | 12° |
| 2026-04-21 14:33 | 58.81495 | 24.62009 | 35171 ft | 421 kts | 12° |
| 2026-04-21 14:33 | 58.84365 | 24.63036 | 34949 ft | 418 kts | 12° |
| 2026-04-21 14:34 | 58.87221 | 24.64058 | 34401 ft | 417 kts | 12° |
| 2026-04-21 14:34 | 58.90068 | 24.65080 | 33808 ft | 415 kts | 12° |
| 2026-04-21 14:34 | 58.92907 | 24.66105 | 33129 ft | 415 kts | 12° |
| 2026-04-21 14:34 | 58.95741 | 24.67133 | 32451 ft | 414 kts | 12° |
| 2026-04-21 14:35 | 58.98575 | 24.68163 | 31747 ft | 414 kts | 12° |
| 2026-04-21 14:35 | 59.01412 | 24.69196 | 31040 ft | 415 kts | 12° |
| 2026-04-21 14:35 | 59.04252 | 24.70231 | 30333 ft | 415 kts | 12° |
| 2026-04-21 14:35 | 59.07050 | 24.71251 | 29521 ft | 416 kts | 12° |
| 2026-04-21 14:36 | 59.09898 | 24.72292 | 28632 ft | 417 kts | 12° |
| 2026-04-21 14:36 | 59.12758 | 24.73337 | 27715 ft | 419 kts | 12° |
| 2026-04-21 14:36 | 59.15634 | 24.74388 | 26779 ft | 422 kts | 12° |
| 2026-04-21 14:36 | 59.18526 | 24.75447 | 25833 ft | 424 kts | 12° |
| 2026-04-21 14:37 | 59.21436 | 24.76515 | 24877 ft | 427 kts | 12° |
| 2026-04-21 14:37 | 59.24363 | 24.77595 | 23921 ft | 429 kts | 12° |
| 2026-04-21 14:37 | 59.27287 | 24.78676 | 23163 ft | 425 kts | 12° |
| 2026-04-21 14:37 | 59.30180 | 24.79741 | 22354 ft | 421 kts | 12° |
| 2026-04-21 14:38 | 59.33044 | 24.80795 | 21557 ft | 417 kts | 12° |
| 2026-04-21 14:38 | 59.35839 | 24.81828 | 20790 ft | 413 kts | 12° |
| 2026-04-21 14:38 | 59.38651 | 24.82875 | 20034 ft | 410 kts | 12° |
| 2026-04-21 14:38 | 59.41407 | 24.84183 | 19267 ft | 406 kts | 18° |
| 2026-04-21 14:39 | 59.44026 | 24.86175 | 18544 ft | 402 kts | 23° |
| 2026-04-21 14:39 | 59.46593 | 24.88316 | 17727 ft | 399 kts | 23° |
| 2026-04-21 14:39 | 59.49138 | 24.90440 | 16950 ft | 395 kts | 23° |
| 2026-04-21 14:39 | 59.51659 | 24.92542 | 16216 ft | 391 kts | 23° |
| 2026-04-21 14:40 | 59.54123 | 24.94597 | 15519 ft | 388 kts | 23° |
| 2026-04-21 14:40 | 59.56599 | 24.96663 | 14850 ft | 385 kts | 22° |
| 2026-04-21 14:40 | 59.59051 | 24.98707 | 14221 ft | 382 kts | 22° |
| 2026-04-21 14:40 | 59.61495 | 25.00742 | 13579 ft | 379 kts | 22° |
| 2026-04-21 14:41 | 59.63909 | 25.02753 | 12923 ft | 376 kts | 22° |
| 2026-04-21 14:41 | 59.66307 | 25.04753 | 12327 ft | 372 kts | 22° |
| 2026-04-21 14:41 | 59.68687 | 25.06748 | 12137 ft | 368 kts | 22° |
| 2026-04-21 14:41 | 59.70976 | 25.08676 | 12148 ft | 347 kts | 22° |
| 2026-04-21 14:42 | 59.73135 | 25.10492 | 12151 ft | 326 kts | 22° |
| 2026-04-21 14:42 | 59.75161 | 25.12199 | 12150 ft | 308 kts | 22° |
| 2026-04-21 14:42 | 59.77076 | 25.13820 | 12150 ft | 291 kts | 23° |
| 2026-04-21 14:42 | 59.78862 | 25.15336 | 12149 ft | 276 kts | 23° |
| 2026-04-21 14:43 | 59.80614 | 25.16819 | 12157 ft | 272 kts | 22° |
| 2026-04-21 14:43 | 59.82354 | 25.18290 | 12153 ft | 272 kts | 22° |
| 2026-04-21 14:43 | 59.84094 | 25.19766 | 12150 ft | 271 kts | 22° |
| 2026-04-21 14:43 | 59.85817 | 25.21237 | 11848 ft | 269 kts | 23° |
| 2026-04-21 14:44 | 59.87537 | 25.22710 | 11468 ft | 268 kts | 23° |
| 2026-04-21 14:44 | 59.89296 | 25.23866 | 11099 ft | 267 kts | 11° |
| 2026-04-21 14:44 | 59.91121 | 25.24151 | 10732 ft | 267 kts | 358° |
| 2026-04-21 14:44 | 59.92974 | 25.23547 | 10363 ft | 268 kts | 346° |
| 2026-04-21 14:45 | 59.94729 | 25.22425 | 9983 ft | 268 kts | 345° |
| 2026-04-21 14:45 | 59.96494 | 25.21296 | 9630 ft | 265 kts | 345° |
| 2026-04-21 14:45 | 59.98247 | 25.20183 | 9261 ft | 264 kts | 345° |
| 2026-04-21 14:45 | 59.99989 | 25.19078 | 8894 ft | 262 kts | 345° |
| 2026-04-21 14:46 | 60.01722 | 25.17976 | 8533 ft | 261 kts | 345° |
| 2026-04-21 14:46 | 60.03444 | 25.16880 | 8176 ft | 259 kts | 345° |
| 2026-04-21 14:46 | 60.05070 | 25.15846 | 7836 ft | 258 kts | 345° |
| 2026-04-21 14:46 | 60.06776 | 25.14757 | 7489 ft | 257 kts | 345° |
| 2026-04-21 14:47 | 60.08451 | 25.13690 | 7143 ft | 255 kts | 345° |
| 2026-04-21 14:47 | 60.10137 | 25.12615 | 6805 ft | 254 kts | 345° |
| 2026-04-21 14:47 | 60.11817 | 25.11534 | 6455 ft | 253 kts | 342° |
| 2026-04-21 14:47 | 60.13385 | 25.09913 | 6089 ft | 255 kts | 327° |
| 2026-04-21 14:48 | 60.14692 | 25.07486 | 5702 ft | 259 kts | 311° |
| 2026-04-21 14:48 | 60.15644 | 25.04409 | 5344 ft | 261 kts | 298° |
| 2026-04-21 14:48 | 60.16426 | 25.01130 | 5002 ft | 260 kts | 298° |
| 2026-04-21 14:48 | 60.17205 | 24.97873 | 4658 ft | 258 kts | 297° |
| 2026-04-21 14:49 | 60.17688 | 24.94399 | 4318 ft | 261 kts | 278° |
| 2026-04-21 14:49 | 60.17582 | 24.90810 | 3984 ft | 264 kts | 259° |
| 2026-04-21 14:49 | 60.16881 | 24.87405 | 3651 ft | 266 kts | 239° |
| 2026-04-21 14:49 | 60.15709 | 24.84595 | 3520 ft | 259 kts | 230° |
| 2026-04-21 14:50 | 60.14908 | 24.82861 | 3445 ft | 252 kts | 230° |
| 2026-04-21 14:50 | 60.13358 | 24.79495 | 3245 ft | 239 kts | 230° |
| 2026-04-21 14:50 | 60.12338 | 24.76903 | 3015 ft | 236 kts | 248° |
| 2026-04-21 14:50 | 60.12061 | 24.73779 | 3016 ft | 226 kts | 281° |
| 2026-04-21 14:51 | 60.12655 | 24.70996 | 3009 ft | 212 kts | 313° |
| 2026-04-21 14:51 | 60.13691 | 24.69004 | 2999 ft | 208 kts | 331° |
| 2026-04-21 14:51 | 60.15033 | 24.68026 | 3019 ft | 205 kts | 346° |
| 2026-04-21 14:51 | 60.16409 | 24.67262 | 3019 ft | 205 kts | 345° |
| 2026-04-21 14:52 | 60.17788 | 24.66510 | 3012 ft | 205 kts | 349° |
| 2026-04-21 14:52 | 60.19204 | 24.66422 | 3007 ft | 205 kts | 9° |
| 2026-04-21 14:52 | 60.20536 | 24.67347 | 2868 ft | 203 kts | 29° |
| 2026-04-21 14:52 | 60.21604 | 24.69197 | 2507 ft | 204 kts | 45° |
| 2026-04-21 14:53 | 60.22549 | 24.71262 | 2301 ft | 202 kts | 45° |
| 2026-04-21 14:53 | 60.23501 | 24.73344 | 2308 ft | 198 kts | 44° |
| 2026-04-21 14:53 | 60.24401 | 24.75308 | 2148 ft | 185 kts | 45° |
| 2026-04-21 14:53 | 60.25243 | 24.77146 | 1903 ft | 171 kts | 45° |
| 2026-04-21 14:54 | 60.26005 | 24.78812 | 1723 ft | 158 kts | 44° |
| 2026-04-21 14:54 | 60.26742 | 24.80419 | 1491 ft | 155 kts | 44° |
| 2026-04-21 14:54 | 60.27470 | 24.82009 | 1286 ft | 154 kts | 44° |
| 2026-04-21 14:54 | 60.28186 | 24.83576 | 1064 ft | 147 kts | 44° |
| 2026-04-21 14:55 | 60.28863 | 24.85064 | 848 ft | 143 kts | 45° |
| 2026-04-21 14:55 | 60.29528 | 24.86544 | 678 ft | 146 kts | 46° |
| 2026-04-21 14:55 | 60.30231 | 24.88048 | 485 ft | 148 kts | 42° |
| 2026-04-21 14:55 | 60.30929 | 24.89566 | 318 ft | 147 kts | 41° |
| 2026-04-21 14:56 | 60.31616 | 24.91099 | 159 ft | 144 kts | 40° |
| 2026-04-21 14:56 | 60.32183 | 24.92337 | 164 ft | 95 kts | 47° |
| 2026-04-21 14:56 | 60.32515 | 24.93069 | 176 ft | 47 kts | 48° |
| 2026-04-21 14:56 | 60.32720 | 24.93518 | 180 ft | 41 kts | 47° |
| 2026-04-21 14:57 | 60.32894 | 24.93906 | 183 ft | 29 kts | 47° |
| 2026-04-21 14:57 | 60.33021 | 24.94184 | 189 ft | 23 kts | 47° |
| 2026-04-21 14:57 | 60.33052 | 24.94369 | 189 ft | 14 kts | 89° |
| 2026-04-21 14:57 | 60.33046 | 24.94587 | 184 ft | 16 kts | 95° |
| 2026-04-21 14:58 | 60.32966 | 24.94779 | 178 ft | 20 kts | 137° |
| 2026-04-21 14:58 | 60.32845 | 24.94946 | 175 ft | 22 kts | 160° |
| 2026-04-21 14:58 | 60.32704 | 24.95036 | 179 ft | 21 kts | 162° |
| 2026-04-21 14:58 | 60.32569 | 24.95124 | 180 ft | 21 kts | 162° |
| 2026-04-21 14:59 | 60.32428 | 24.95216 | 178 ft | 22 kts | 162° |
| 2026-04-21 14:59 | 60.32286 | 24.95363 | 176 ft | 24 kts | 139° |
| 2026-04-21 14:59 | 60.32160 | 24.95599 | 173 ft | 26 kts | 136° |
| 2026-04-21 14:59 | 60.32032 | 24.95838 | 174 ft | 21 kts | 136° |
| 2026-04-21 15:00 | 60.31946 | 24.95959 | 171 ft | 14 kts | 181° |
| 2026-04-21 15:00 | 60.31867 | 24.95822 | 169 ft | 16 kts | 227° |
| 2026-04-21 15:00 | 60.31790 | 24.95654 | 170 ft | 16 kts | 227° |
| 2026-04-21 15:00 | 60.31712 | 24.95485 | 171 ft | 17 kts | 229° |
| 2026-04-21 15:01 | 60.31633 | 24.95304 | 170 ft | 18 kts | 226° |
| 2026-04-21 15:01 | 60.31545 | 24.95117 | 170 ft | 19 kts | 227° |
| 2026-04-21 15:01 | 60.31467 | 24.94980 | 168 ft | 13 kts | 191° |
| 2026-04-21 15:01 | 60.31393 | 24.95096 | 167 ft | 15 kts | 132° |
| 2026-04-21 15:02 | 60.31317 | 24.95239 | 166 ft | 16 kts | 139° |
| 2026-04-21 15:02 | 60.31233 | 24.95391 | 166 ft | 17 kts | 136° |
| 2026-04-21 15:02 | 60.31165 | 24.95542 | 166 ft | 12 kts | 107° |
| 2026-04-21 15:02 | 60.31204 | 24.95686 | 166 ft | 13 kts | 47° |
| 2026-04-21 15:03 | 60.31265 | 24.95821 | 166 ft | 14 kts | 49° |
| 2026-04-21 15:03 | 60.31310 | 24.95919 | 166 ft | 4 kts | 39° |
| 2026-04-21 15:03 | 60.31327 | 24.95901 | 166 ft | 3 kts | 321° |
| 2026-04-21 15:03 | 60.31349 | 24.95865 | 166 ft | 5 kts | 321° |
| 2026-04-21 15:04 | 60.31362 | 24.95844 | 166 ft | 1 kts | 322° |
| 2026-04-21 15:04 | 60.31363 | 24.95842 | 166 ft | 0 kts | 322° |